EWG67Q EGPH-EDDK
Flight info
| Callsign | EWG67Q |
|---|---|
| Flight time | N/A |
| Altitude | 25000 |
| Route | TLA Y96 OTBUN/N0449F370 DCT GODOS DCT BERGI DCT PAM L620 SONEB/N0406F230 Z841 GETNI T858 KOPAG KOPAG1B |
| Aircraft | A320/M-SDE3FGHIRWY/LB1 |
Departure
| Time | 2026-05-06 17:10 |
|---|---|
| Airport | Edinburgh Airport (EGPH) |
Arrival
| Time | N/A |
|---|---|
| Airport | Cologne Bonn Airport (EDDK) |
| Time | Latitude | Longitude | Altitude | Speed | Heading |
|---|---|---|---|---|---|
| 2026-05-06 16:43 | 55.94612 | -3.36627 | 117 ft | 0 kts | 89° |
| 2026-05-06 17:01 | 55.94612 | -3.36632 | 116 ft | 3 kts | 89° |
| 2026-05-06 17:01 | 55.94611 | -3.36673 | 115 ft | 3 kts | 81° |
| 2026-05-06 17:01 | 55.94605 | -3.36713 | 113 ft | 3 kts | 54° |
| 2026-05-06 17:01 | 55.94590 | -3.36733 | 113 ft | 1 kts | 359° |
| 2026-05-06 17:04 | 55.94593 | -3.36733 | 116 ft | 3 kts | 359° |
| 2026-05-06 17:04 | 55.94663 | -3.36735 | 116 ft | 16 kts | 359° |
| 2026-05-06 17:04 | 55.94777 | -3.36768 | 114 ft | 15 kts | 337° |
| 2026-05-06 17:04 | 55.94881 | -3.36791 | 116 ft | 16 kts | 339° |
| 2026-05-06 17:05 | 55.94917 | -3.36930 | 112 ft | 13 kts | 239° |
| 2026-05-06 17:05 | 55.94867 | -3.37070 | 114 ft | 16 kts | 238° |
| 2026-05-06 17:05 | 55.94801 | -3.37266 | 113 ft | 18 kts | 238° |
| 2026-05-06 17:05 | 55.94738 | -3.37450 | 115 ft | 17 kts | 239° |
| 2026-05-06 17:06 | 55.94680 | -3.37621 | 112 ft | 15 kts | 239° |
| 2026-05-06 17:06 | 55.94627 | -3.37779 | 113 ft | 14 kts | 239° |
| 2026-05-06 17:06 | 55.94569 | -3.37950 | 115 ft | 20 kts | 239° |
| 2026-05-06 17:06 | 55.94499 | -3.38155 | 113 ft | 19 kts | 239° |
| 2026-05-06 17:07 | 55.94434 | -3.38346 | 115 ft | 17 kts | 238° |
| 2026-05-06 17:07 | 55.94374 | -3.38523 | 113 ft | 16 kts | 239° |
| 2026-05-06 17:07 | 55.94319 | -3.38686 | 114 ft | 15 kts | 239° |
| 2026-05-06 17:07 | 55.94280 | -3.38841 | 116 ft | 13 kts | 281° |
| 2026-05-06 17:08 | 55.94327 | -3.38909 | 116 ft | 0 kts | 330° |
| 2026-05-06 17:09 | 55.94372 | -3.38956 | 114 ft | 12 kts | 330° |
| 2026-05-06 17:09 | 55.94433 | -3.38922 | 114 ft | 10 kts | 58° |
| 2026-05-06 17:10 | 55.94514 | -3.38679 | 111 ft | 53 kts | 59° |
| 2026-05-06 17:10 | 55.94826 | -3.37763 | 113 ft | 117 kts | 59° |
| 2026-05-06 17:10 | 55.95332 | -3.36289 | 329 ft | 147 kts | 58° |
| 2026-05-06 17:10 | 55.95847 | -3.34767 | 1140 ft | 142 kts | 60° |
| 2026-05-06 17:11 | 55.96553 | -3.33407 | 1691 ft | 162 kts | 46° |
| 2026-05-06 17:11 | 55.97438 | -3.31955 | 2082 ft | 183 kts | 45° |
| 2026-05-06 17:11 | 55.98445 | -3.30326 | 2504 ft | 209 kts | 44° |
| 2026-05-06 17:11 | 55.99594 | -3.28499 | 3015 ft | 233 kts | 43° |
| 2026-05-06 17:12 | 56.00844 | -3.26513 | 3771 ft | 245 kts | 42° |
| 2026-05-06 17:12 | 56.02121 | -3.24460 | 4729 ft | 250 kts | 41° |
| 2026-05-06 17:12 | 56.03434 | -3.22343 | 5609 ft | 258 kts | 40° |
| 2026-05-06 17:12 | 56.04690 | -3.19981 | 6436 ft | 270 kts | 57° |
| 2026-05-06 17:13 | 56.05193 | -3.16709 | 7210 ft | 283 kts | 90° |
| 2026-05-06 17:13 | 56.05021 | -3.13156 | 8071 ft | 289 kts | 96° |
| 2026-05-06 17:13 | 56.04454 | -3.09691 | 8922 ft | 296 kts | 119° |
| 2026-05-06 17:13 | 56.03140 | -3.06856 | 9791 ft | 300 kts | 142° |
| 2026-05-06 17:14 | 56.02028 | -3.05370 | 10256 ft | 306 kts | 146° |
| 2026-05-06 17:14 | 56.00245 | -3.03016 | 10551 ft | 330 kts | 145° |
| 2026-05-06 17:14 | 55.98273 | -3.00655 | 10810 ft | 351 kts | 157° |
| 2026-05-06 17:14 | 55.95093 | -2.99830 | 11578 ft | 354 kts | 192° |
| 2026-05-06 17:15 | 55.92772 | -3.01211 | 12337 ft | 353 kts | 206° |
| 2026-05-06 17:15 | 55.90414 | -3.02528 | 13113 ft | 361 kts | 190° |
| 2026-05-06 17:15 | 55.88703 | -3.02552 | 13638 ft | 368 kts | 175° |
| 2026-05-06 17:15 | 55.85418 | -3.00782 | 14552 ft | 376 kts | 162° |
| 2026-05-06 17:16 | 55.83757 | -2.99667 | 15022 ft | 378 kts | 162° |
| 2026-05-06 17:16 | 55.81284 | -2.98011 | 15693 ft | 382 kts | 162° |
| 2026-05-06 17:16 | 55.78784 | -2.96346 | 16349 ft | 385 kts | 162° |
| 2026-05-06 17:16 | 55.76294 | -2.94701 | 16988 ft | 389 kts | 162° |
| 2026-05-06 17:17 | 55.73745 | -2.93027 | 17631 ft | 392 kts | 162° |
| 2026-05-06 17:17 | 55.71139 | -2.91324 | 18276 ft | 396 kts | 163° |
| 2026-05-06 17:17 | 55.68578 | -2.89653 | 18812 ft | 399 kts | 163° |
| 2026-05-06 17:17 | 55.65966 | -2.87953 | 19356 ft | 402 kts | 163° |
| 2026-05-06 17:18 | 55.63333 | -2.86243 | 19888 ft | 405 kts | 162° |
| 2026-05-06 17:18 | 55.60675 | -2.84517 | 20425 ft | 408 kts | 163° |
| 2026-05-06 17:18 | 55.57999 | -2.82776 | 20956 ft | 411 kts | 162° |
| 2026-05-06 17:18 | 55.55275 | -2.81003 | 21481 ft | 414 kts | 162° |
| 2026-05-06 17:19 | 55.52561 | -2.79236 | 22003 ft | 417 kts | 162° |
| 2026-05-06 17:19 | 55.49827 | -2.77466 | 22487 ft | 420 kts | 162° |
| 2026-05-06 17:19 | 55.47107 | -2.75712 | 22976 ft | 423 kts | 162° |
| 2026-05-06 17:19 | 55.44337 | -2.73926 | 23469 ft | 426 kts | 162° |
| 2026-05-06 17:20 | 55.41554 | -2.72093 | 23884 ft | 430 kts | 159° |
| 2026-05-06 17:20 | 55.38886 | -2.69642 | 24271 ft | 435 kts | 149° |
| 2026-05-06 17:20 | 55.36476 | -2.66386 | 24666 ft | 440 kts | 139° |
| 2026-05-06 17:20 | 55.34405 | -2.62386 | 25059 ft | 445 kts | 128° |
| 2026-05-06 17:21 | 55.32733 | -2.57785 | 25441 ft | 449 kts | 120° |
| 2026-05-06 17:21 | 55.31200 | -2.52993 | 25836 ft | 451 kts | 121° |
| 2026-05-06 17:21 | 55.29646 | -2.48184 | 26207 ft | 454 kts | 121° |
| 2026-05-06 17:21 | 55.28077 | -2.43364 | 26582 ft | 456 kts | 121° |
| 2026-05-06 17:22 | 55.26523 | -2.38501 | 26954 ft | 459 kts | 120° |
| 2026-05-06 17:22 | 55.24990 | -2.33568 | 27320 ft | 461 kts | 120° |
| 2026-05-06 17:22 | 55.23474 | -2.28596 | 27670 ft | 464 kts | 119° |
| 2026-05-06 17:22 | 55.21957 | -2.23592 | 28003 ft | 466 kts | 119° |
| 2026-05-06 17:23 | 55.20427 | -2.18568 | 28328 ft | 469 kts | 120° |
| 2026-05-06 17:23 | 55.18880 | -2.13531 | 28646 ft | 471 kts | 120° |
| 2026-05-06 17:23 | 55.17316 | -2.08476 | 28970 ft | 474 kts | 120° |
| 2026-05-06 17:23 | 55.15736 | -2.03407 | 29282 ft | 476 kts | 120° |
| 2026-05-06 17:24 | 55.14146 | -1.98321 | 29584 ft | 478 kts | 120° |
| 2026-05-06 17:24 | 55.12543 | -1.93205 | 29897 ft | 480 kts | 121° |
| 2026-05-06 17:24 | 55.10938 | -1.88087 | 30303 ft | 479 kts | 121° |
| 2026-05-06 17:24 | 55.09359 | -1.83061 | 30668 ft | 478 kts | 121° |
| 2026-05-06 17:25 | 55.07737 | -1.77908 | 31034 ft | 478 kts | 121° |
| 2026-05-06 17:25 | 55.06161 | -1.72901 | 31399 ft | 477 kts | 121° |
| 2026-05-06 17:25 | 55.04565 | -1.67842 | 31785 ft | 476 kts | 121° |
| 2026-05-06 17:25 | 55.02968 | -1.62797 | 32159 ft | 475 kts | 121° |
| 2026-05-06 17:26 | 55.01371 | -1.57763 | 32533 ft | 474 kts | 121° |
| 2026-05-06 17:26 | 54.99774 | -1.52741 | 32911 ft | 473 kts | 121° |
| 2026-05-06 17:26 | 54.98180 | -1.47736 | 33292 ft | 472 kts | 121° |
| 2026-05-06 17:26 | 54.96589 | -1.42748 | 33677 ft | 471 kts | 121° |
| 2026-05-06 17:27 | 54.94999 | -1.37768 | 34062 ft | 470 kts | 121° |
| 2026-05-06 17:27 | 54.93407 | -1.32794 | 34367 ft | 470 kts | 121° |
| 2026-05-06 17:27 | 54.91818 | -1.27844 | 34670 ft | 469 kts | 121° |
| 2026-05-06 17:27 | 54.90225 | -1.22893 | 34963 ft | 469 kts | 121° |
| 2026-05-06 17:28 | 54.88629 | -1.17950 | 35238 ft | 469 kts | 121° |
| 2026-05-06 17:28 | 54.87031 | -1.13016 | 35509 ft | 469 kts | 121° |
| 2026-05-06 17:28 | 54.85429 | -1.08081 | 35772 ft | 469 kts | 121° |
| 2026-05-06 17:28 | 54.83827 | -1.03154 | 36038 ft | 469 kts | 121° |
| 2026-05-06 17:29 | 54.82225 | -0.98237 | 36289 ft | 469 kts | 121° |
| 2026-05-06 17:29 | 54.80622 | -0.93312 | 36533 ft | 469 kts | 121° |
| 2026-05-06 17:29 | 54.79020 | -0.88404 | 36783 ft | 468 kts | 121° |
| 2026-05-06 17:29 | 54.77413 | -0.83493 | 37007 ft | 469 kts | 121° |
| 2026-05-06 17:30 | 54.75803 | -0.78579 | 37066 ft | 469 kts | 121° |
| 2026-05-06 17:30 | 54.72581 | -0.68756 | 37071 ft | 469 kts | 121° |
| 2026-05-06 17:31 | 54.69353 | -0.58958 | 37070 ft | 469 kts | 121° |
| 2026-05-06 17:31 | 54.66110 | -0.49203 | 37063 ft | 468 kts | 121° |
| 2026-05-06 17:32 | 54.62885 | -0.39527 | 37066 ft | 468 kts | 121° |
| 2026-05-06 17:32 | 54.59633 | -0.29798 | 37072 ft | 468 kts | 121° |
| 2026-05-06 17:33 | 54.56378 | -0.20087 | 37074 ft | 468 kts | 121° |
| 2026-05-06 17:33 | 54.53112 | -0.10386 | 37072 ft | 468 kts | 122° |
| 2026-05-06 17:34 | 54.49842 | -0.00709 | 37072 ft | 468 kts | 122° |
| 2026-05-06 17:34 | 54.46552 | 0.08970 | 37042 ft | 468 kts | 121° |
| 2026-05-06 17:35 | 54.43256 | 0.18639 | 37037 ft | 469 kts | 121° |
| 2026-05-06 17:35 | 54.39948 | 0.28309 | 37045 ft | 470 kts | 122° |
| 2026-05-06 17:36 | 54.34957 | 0.42826 | 37052 ft | 471 kts | 122° |
| 2026-05-06 17:36 | 54.31621 | 0.52495 | 37059 ft | 471 kts | 122° |
| 2026-05-06 17:37 | 54.28300 | 0.62075 | 37064 ft | 471 kts | 122° |
| 2026-05-06 17:37 | 54.24942 | 0.71701 | 37072 ft | 471 kts | 122° |
| 2026-05-06 17:38 | 54.21573 | 0.81318 | 37071 ft | 471 kts | 122° |
| 2026-05-06 17:38 | 54.18197 | 0.90920 | 37064 ft | 471 kts | 122° |
| 2026-05-06 17:39 | 54.14823 | 1.00509 | 37067 ft | 471 kts | 122° |
| 2026-05-06 17:39 | 54.11443 | 1.10079 | 37064 ft | 471 kts | 123° |
| 2026-05-06 17:40 | 54.08050 | 1.19635 | 37065 ft | 471 kts | 123° |
| 2026-05-06 17:40 | 54.04647 | 1.29157 | 37060 ft | 471 kts | 123° |
| 2026-05-06 17:41 | 54.01243 | 1.38662 | 37060 ft | 470 kts | 123° |
| 2026-05-06 17:41 | 53.97836 | 1.48161 | 37056 ft | 470 kts | 123° |
| 2026-05-06 17:42 | 53.94425 | 1.57638 | 37052 ft | 470 kts | 123° |
| 2026-05-06 17:42 | 53.91027 | 1.67018 | 37051 ft | 470 kts | 123° |
| 2026-05-06 17:43 | 53.87597 | 1.76436 | 37047 ft | 469 kts | 124° |
| 2026-05-06 17:43 | 53.84162 | 1.85838 | 37044 ft | 469 kts | 124° |
| 2026-05-06 17:44 | 53.80733 | 1.95229 | 37043 ft | 469 kts | 124° |
| 2026-05-06 17:44 | 53.77297 | 2.04601 | 37042 ft | 469 kts | 124° |
| 2026-05-06 17:45 | 53.73848 | 2.13944 | 37039 ft | 468 kts | 124° |
| 2026-05-06 17:45 | 53.70395 | 2.23257 | 37032 ft | 468 kts | 124° |
| 2026-05-06 17:46 | 53.66934 | 2.32556 | 37029 ft | 467 kts | 124° |
| 2026-05-06 17:46 | 53.63476 | 2.41833 | 37020 ft | 467 kts | 124° |
| 2026-05-06 17:47 | 53.60014 | 2.51090 | 37018 ft | 467 kts | 124° |
| 2026-05-06 17:47 | 53.56545 | 2.60320 | 37013 ft | 467 kts | 124° |
| 2026-05-06 17:48 | 53.53063 | 2.69531 | 37011 ft | 467 kts | 124° |
| 2026-05-06 17:48 | 53.49581 | 2.78736 | 37009 ft | 467 kts | 124° |
| 2026-05-06 17:49 | 53.46120 | 2.87855 | 37008 ft | 466 kts | 125° |
| 2026-05-06 17:49 | 53.42624 | 2.97012 | 37004 ft | 466 kts | 125° |
| 2026-05-06 17:50 | 53.39124 | 3.06152 | 36999 ft | 466 kts | 125° |
| 2026-05-06 17:50 | 53.35616 | 3.15272 | 37000 ft | 465 kts | 125° |
| 2026-05-06 17:51 | 53.32104 | 3.24365 | 36998 ft | 465 kts | 125° |
| 2026-05-06 17:51 | 53.28594 | 3.33452 | 37001 ft | 465 kts | 125° |
| 2026-05-06 17:52 | 53.25054 | 3.42485 | 37003 ft | 463 kts | 129° |
| 2026-05-06 17:52 | 53.20870 | 3.50614 | 36993 ft | 461 kts | 134° |
| 2026-05-06 17:53 | 53.16633 | 3.58559 | 36995 ft | 461 kts | 134° |
| 2026-05-06 17:53 | 53.12377 | 3.66542 | 36995 ft | 461 kts | 134° |
| 2026-05-06 17:54 | 53.08114 | 3.74535 | 36981 ft | 462 kts | 134° |
| 2026-05-06 17:54 | 53.03849 | 3.82507 | 36990 ft | 462 kts | 134° |
| 2026-05-06 17:55 | 52.99575 | 3.90467 | 36977 ft | 461 kts | 134° |
| 2026-05-06 17:55 | 52.95285 | 3.98397 | 36967 ft | 461 kts | 134° |
| 2026-05-06 17:56 | 52.90994 | 4.06308 | 36965 ft | 462 kts | 134° |
| 2026-05-06 17:56 | 52.86706 | 4.14228 | 36958 ft | 462 kts | 134° |
| 2026-05-06 17:57 | 52.82416 | 4.22119 | 36963 ft | 461 kts | 134° |
| 2026-05-06 17:57 | 52.78138 | 4.29934 | 36966 ft | 461 kts | 134° |
| 2026-05-06 17:58 | 52.73831 | 4.37781 | 36967 ft | 461 kts | 134° |
| 2026-05-06 17:58 | 52.69504 | 4.45579 | 36952 ft | 461 kts | 135° |
| 2026-05-06 17:59 | 52.65153 | 4.53334 | 36956 ft | 460 kts | 135° |
| 2026-05-06 17:59 | 52.60805 | 4.61072 | 36950 ft | 460 kts | 135° |
| 2026-05-06 18:00 | 52.56461 | 4.68793 | 36940 ft | 460 kts | 135° |
| 2026-05-06 18:00 | 52.52108 | 4.76490 | 36928 ft | 459 kts | 135° |